Track Ширнин Вячеслав Красноярский край

Time Latitude Longitude Accuracy (66% radius in meters) Altitude (meters) Speed (km/hour) Bearing (degrees) Battery (%) GPS flag
06:06:56 43.171311 132.075845 5 76.900001525879 0.41999998688698 16.331176757812 43 1 delete
06:06:46 43.171359 132.075827 3.5 77.099998474121 0 0 43 1 delete
06:06:39 43.171317 132.075784 4.5 77 1.0099999904633 18.825073242188 43 1 delete
06:06:35 43.171263 132.075782 4.5 74.800003051758 1.0099999904633 351.62292480469 43 1 delete
06:06:28 43.171192 132.075819 4.5 73.199996948242 0.77999997138977 335.85205078125 43 1 delete
06:06:21 43.171137 132.075885 5 74.699996948242 1.2099999189377 345.30578613281 43 1 delete
06:06:15 43.171081 132.075886 5 73.599998474121 1.4499999284744 340.84533691406 43 1 delete
06:06:09 43.171036 132.075918 4 73.400001525879 1.0099999904633 339.32922363281 43 1 delete
06:06:02 43.170973 132.075942 4 70.800003051758 0.8299999833107 353.39172363281 43 1 delete
06:05:58 43.170917 132.075977 4 71 0.87000000476837 322.43225097656 43 1 delete
06:05:51 43.170853 132.076019 5.5 76.099998474121 0.40999999642372 322.119140625 43 1 delete
06:05:37 43.170810 132.075985 4.5 75.5 0.42999997735023 358.13781738281 43 1 delete
06:04:38 43.170761 132.075990 5 80.300003051758 0 0 43 1 delete
06:04:17 43.170803 132.076030 4.5 82.5 0 0 43 1 delete
06:03:49 43.170860 132.075987 6.5 77.800003051758 0 0 43 1 delete
06:02:29 43.170899 132.076049 5 77.199996948242 0.46999999880791 332.30895996094 43 1 delete
06:02:14 43.170841 132.076004 4.5 74.5 0.070000000298023 178.64868164062 43 1 delete
06:01:02 43.170892 132.076035 6.5 75 0.62999999523163 2.340087890625 43 1 delete
06:00:47 43.170835 132.076005 5 74.599998474121 0.11999999731779 95.696411132812 43 1 delete
05:59:29 43.170884 132.075981 5.5 72.900001525879 0.059999998658895 229.20227050781 43 1 delete
05:56:53 43.170856 132.076056 4 76.800003051758 0.14000000059605 155.73669433594 45 1 delete
05:55:56 43.170919 132.075974 6 74.599998474121 0.35999998450279 148.271484375 45 1 delete
05:55:11 43.170969 132.075954 5.5 68.5 0.62000000476837 338.09875488281 45 1 delete
05:53:11 43.170926 132.075996 5 68.5 0.11999999731779 343.85559082031 45 1 delete
05:52:11 43.170874 132.076014 7 74 0.28000000119209 283.68347167969 45 1 delete
05:51:23 43.170831 132.076081 5.5 74.599998474121 0.18999999761581 113.24157714844 45 1 delete
05:50:53 43.170860 132.076001 6.5 81.099998474121 0.1499999910593 115.65307617188 45 1 delete
05:50:17 43.170810 132.075988 6 76.5 0.28999999165535 186.95434570312 45 1 delete
05:50:02 43.170842 132.076033 7 80.300003051758 0 0 45 1 delete
05:49:26 43.170832 132.075967 7 77.300003051758 0.29999998211861 198.08898925781 45 1 delete
05:49:05 43.170837 132.075901 7.5 81 0 0 45 1 delete
05:48:50 43.170838 132.075965 9 84.5 0.089999996125698 82.831420898438 45 1 delete
05:48:11 43.170829 132.076081 5.5 86.099998474121 0.03999999910593 340.77941894531 45 1 delete
05:47:53 43.170773 132.076063 7 84.099998474121 0 0 45 1 delete
05:47:41 43.170782 132.075989 8.5 78.699996948242 0.50999999046326 197.78137207031 45 1 delete
05:47:29 43.170843 132.076011 7 79.5 0.12999999523163 22.78564453125 45 1 delete
05:47:14 43.170923 132.076020 8.5 78.900001525879 0.5 189.39880371094 45 1 delete
05:47:05 43.171010 132.075953 9 79.400001525879 0 0 45 1 delete
05:46:56 43.171003 132.075865 9 78.400001525879 0 0 45 1 delete
05:46:50 43.170946 132.075877 9 77.199996948242 1.2999999523163 323.33862304688 45 1 delete
05:46:47 43.170912 132.075939 10 77.400001525879 0.9899999499321 316.29089355469 45 1 delete
05:45:08 43.170831 132.075999 8.5 74.300003051758 0.22999998927116 282.54089355469 45 1 delete
05:44:41 43.170725 132.076019 5 71.599998474121 0.29999998211861 337.53845214844 45 1 delete
05:43:41 43.170674 132.076039 7 71.800003051758 0.44999998807907 165.673828125 45 1 delete
05:43:38 43.170724 132.076037 7 73.699996948242 0.76999998092651 164.59167480469 45 1 delete
05:42:59 43.170793 132.076034 8.5 82.699996948242 0.029999999329448 210.04760742188 45 1 delete
05:42:41 43.170851 132.076025 7.5 76 0.37999999523163 161.66381835938 45 1 delete
05:42:14 43.170902 132.076018 6.5 73.900001525879 0.53999996185303 335.5224609375 45 1 delete
05:42:02 43.170849 132.076053 7 70.199996948242 0.3299999833107 347.2998046875 45 1 delete
05:41:23 43.170789 132.076042 8.5 71.400001525879 0 0 45 1 delete